createdAt,value
2016-12-11T00:00:28.183Z,22.6
2016-12-11T00:00:57.397Z,22.61
2016-12-11T00:01:25.537Z,22.64
2016-12-11T00:01:53.937Z,22.62
2016-12-11T00:02:23.158Z,22.62
2016-12-11T00:02:51.342Z,22.6
2016-12-11T00:03:20.035Z,22.65
2016-12-11T00:03:48.803Z,22.6
2016-12-11T00:04:17.718Z,22.49
2016-12-11T00:04:45.889Z,22.57
2016-12-11T00:05:13.922Z,22.49
2016-12-11T00:05:43.506Z,22.49
2016-12-11T00:06:12.897Z,22.54
2016-12-11T00:06:41.083Z,22.64
2016-12-11T00:07:10.418Z,22.65
2016-12-11T00:07:39.630Z,22.61
2016-12-11T00:08:07.993Z,22.64
2016-12-11T00:08:36.020Z,22.65
2016-12-11T00:09:05.342Z,22.73
2016-12-11T00:09:34.444Z,22.72
2016-12-11T00:10:03.269Z,22.79
2016-12-11T00:10:31.416Z,22.75
2016-12-11T00:11:00.524Z,22.76
2016-12-11T00:11:28.806Z,22.82
2016-12-11T00:11:56.996Z,22.83
2016-12-11T00:12:25.244Z,22.83
2016-12-11T00:12:54.484Z,22.88
2016-12-11T00:13:22.807Z,22.88
2016-12-11T00:13:52.229Z,22.88
2016-12-11T00:14:20.955Z,22.86
2016-12-11T00:14:49.794Z,22.82
2016-12-11T00:15:18.241Z,22.94
2016-12-11T00:15:48.730Z,22.86
2016-12-11T00:16:17.811Z,22.88
2016-12-11T00:16:46.754Z,22.88
2016-12-11T00:17:15.085Z,22.91
2016-12-11T00:17:44.140Z,22.94
2016-12-11T00:18:13.213Z,22.97
2016-12-11T00:18:41.605Z,22.9
2016-12-11T00:19:10.520Z,22.94
2016-12-11T00:19:39.829Z,22.86
2016-12-11T00:20:08.886Z,22.83
2016-12-11T00:20:37.171Z,22.8
2016-12-11T00:21:06.698Z,22.76
2016-12-11T00:21:35.029Z,22.7
2016-12-11T00:22:03.414Z,22.76
2016-12-11T00:22:31.933Z,22.68
2016-12-11T00:23:00.271Z,22.62
2016-12-11T00:23:29.619Z,22.58
2016-12-11T00:23:58.692Z,22.62
2016-12-11T00:24:26.990Z,22.62
2016-12-11T00:24:58.276Z,22.58
2016-12-11T00:25:26.445Z,22.65
2016-12-11T00:25:55.853Z,22.52
2016-12-11T00:26:24.254Z,22.47
2016-12-11T00:26:54.155Z,22.54
2016-12-11T00:27:22.911Z,22.55
2016-12-11T00:27:51.171Z,22.51
2016-12-11T00:28:20.970Z,22.58
2016-12-11T00:28:50.097Z,22.47
2016-12-11T00:29:19.544Z,22.57
2016-12-11T00:29:48.821Z,22.6
2016-12-11T00:30:16.905Z,22.65
2016-12-11T00:30:45.184Z,22.65
2016-12-11T00:31:13.569Z,22.64
2016-12-11T00:31:42.810Z,22.62
2016-12-11T00:32:11.136Z,22.75
2016-12-11T00:32:39.602Z,22.73
2016-12-11T00:33:08.406Z,22.8
2016-12-11T00:34:14.987Z,22.82
2016-12-11T00:34:43.158Z,22.83
2016-12-11T00:35:11.706Z,22.88
2016-12-11T00:35:39.750Z,22.9
2016-12-11T00:36:08.113Z,22.92
2016-12-11T00:36:36.488Z,22.83
2016-12-11T00:37:04.881Z,22.82
2016-12-11T00:37:34.002Z,22.9
2016-12-11T00:38:03.002Z,23
2016-12-11T00:38:31.978Z,22.95
2016-12-11T00:39:00.291Z,22.94
2016-12-11T00:39:29.915Z,22.94
2016-12-11T00:39:58.543Z,22.92
2016-12-11T00:40:28.297Z,22.9
2016-12-11T00:40:57.941Z,22.92
2016-12-11T00:41:26.423Z,22.92
2016-12-11T00:41:55.066Z,22.97
2016-12-11T00:42:23.559Z,22.92
2016-12-11T00:42:53.226Z,23.02
2016-12-11T00:43:23.712Z,23.01
2016-12-11T00:43:53.151Z,23.01
2016-12-11T00:44:21.704Z,23.04
2016-12-11T00:44:50.637Z,22.85
2016-12-11T00:45:18.589Z,22.94
2016-12-11T00:45:48.891Z,22.97
2016-12-11T00:46:17.445Z,22.88
2016-12-11T00:46:46.847Z,22.86
2016-12-11T00:47:16.537Z,22.88
2016-12-11T00:47:45.616Z,22.9
2016-12-11T00:48:13.713Z,22.95
2016-12-11T00:48:42.001Z,22.86
2016-12-11T00:49:10.469Z,22.9
2016-12-11T00:49:38.966Z,22.9
2016-12-11T00:50:06.931Z,22.86
2016-12-11T00:50:35.827Z,22.91
2016-12-11T00:51:04.098Z,22.92
2016-12-11T00:51:32.846Z,22.94
2016-12-11T00:52:01.506Z,22.82
2016-12-11T00:52:30.327Z,22.9
2016-12-11T00:52:59.828Z,22.92
2016-12-11T00:53:28.404Z,22.82
2016-12-11T00:53:57.909Z,22.88
2016-12-11T00:54:27.333Z,22.82
2016-12-11T00:54:56.876Z,22.91
2016-12-11T00:55:25.292Z,22.85
2016-12-11T00:55:53.087Z,22.9
2016-12-11T00:56:21.272Z,22.73
2016-12-11T00:56:50.483Z,22.92
2016-12-11T00:57:19.080Z,22.91
2016-12-11T00:57:47.483Z,22.92
2016-12-11T00:58:16.659Z,22.88
2016-12-11T00:58:46.067Z,22.88
2016-12-11T00:59:15.629Z,22.86
2016-12-11T00:59:43.779Z,22.86
2016-12-11T01:00:12.132Z,22.76
2016-12-11T01:00:40.597Z,22.85
2016-12-11T01:01:09.529Z,22.75
2016-12-11T01:01:37.795Z,22.76
2016-12-11T01:02:06.199Z,22.77
2016-12-11T01:02:34.895Z,22.76
2016-12-11T01:03:03.326Z,22.8
2016-12-11T01:03:33.106Z,22.75
2016-12-11T01:04:01.651Z,22.7
2016-12-11T01:04:29.711Z,22.7
2016-12-11T01:04:59.854Z,22.76
2016-12-11T01:05:30.600Z,22.7
2016-12-11T01:05:59.286Z,22.8
2016-12-11T01:06:28.044Z,22.75
2016-12-11T01:06:57.766Z,22.75
2016-12-11T01:07:26.679Z,22.77
2016-12-11T01:07:55.821Z,22.76
2016-12-11T01:08:24.184Z,22.75
2016-12-11T01:08:53.004Z,22.75
2016-12-11T01:09:21.252Z,22.82
2016-12-11T01:09:49.389Z,22.75
2016-12-11T01:10:17.366Z,22.8
2016-12-11T01:10:45.768Z,22.85
2016-12-11T01:11:14.518Z,22.85
2016-12-11T01:11:43.033Z,22.86
2016-12-11T01:12:12.393Z,22.83
2016-12-11T01:12:41.779Z,22.83
2016-12-11T01:13:10.045Z,22.95
2016-12-11T01:14:16.823Z,22.98
2016-12-11T01:14:45.368Z,22.85
2016-12-11T01:15:14.134Z,22.85
2016-12-11T01:15:43.772Z,22.92
2016-12-11T01:16:12.098Z,22.86
2016-12-11T01:16:40.985Z,22.94
2016-12-11T01:17:09.294Z,22.94
2016-12-11T01:17:38.838Z,23
2016-12-11T01:18:08.567Z,22.92
2016-12-11T01:18:37.392Z,22.88
2016-12-11T01:19:06.187Z,22.98
2016-12-11T01:19:34.374Z,22.94
2016-12-11T01:20:02.319Z,22.86
2016-12-11T01:20:31.433Z,22.91
2016-12-11T01:21:00.951Z,22.98
2016-12-11T01:21:29.396Z,22.88
2016-12-11T01:21:57.930Z,22.88
2016-12-11T01:22:26.696Z,22.95
2016-12-11T01:22:55.158Z,22.91
2016-12-11T01:23:24.804Z,22.91
2016-12-11T01:23:54.178Z,22.9
2016-12-11T01:24:22.650Z,22.9
2016-12-11T01:24:51.437Z,22.91
2016-12-11T01:25:19.987Z,22.85
2016-12-11T01:25:50.231Z,22.86
2016-12-11T01:26:18.849Z,22.88
2016-12-11T01:26:47.001Z,22.86
2016-12-11T01:27:15.479Z,22.88
2016-12-11T01:27:43.779Z,22.91
2016-12-11T01:28:12.558Z,22.88
2016-12-11T01:28:41.469Z,22.9
2016-12-11T01:29:09.514Z,22.95
2016-12-11T01:29:38.742Z,22.88
2016-12-11T01:30:07.342Z,22.77
2016-12-11T01:30:37.241Z,22.88
2016-12-11T01:31:06.258Z,22.88
2016-12-11T01:31:34.298Z,22.95
2016-12-11T01:32:02.772Z,22.95
2016-12-11T01:32:32.569Z,22.91
2016-12-11T01:33:00.848Z,22.85
2016-12-11T01:33:29.879Z,22.94
2016-12-11T01:33:58.212Z,23
2016-12-11T01:34:27.887Z,22.9
2016-12-11T01:34:56.459Z,22.97
2016-12-11T01:35:26.192Z,22.9
2016-12-11T01:35:55.632Z,22.9
2016-12-11T01:36:24.595Z,23.01
2016-12-11T01:36:53.238Z,22.91
2016-12-11T01:37:22.630Z,23.02
2016-12-11T01:37:51.475Z,22.92
2016-12-11T01:38:20.006Z,22.92
2016-12-11T01:38:48.248Z,23.01
2016-12-11T01:39:16.779Z,22.95
2016-12-11T01:39:46.594Z,22.91
2016-12-11T01:40:15.862Z,23.05
2016-12-11T01:40:45.419Z,23.1
2016-12-11T01:41:13.554Z,23.07
2016-12-11T01:41:42.587Z,23.09
2016-12-11T01:42:12.368Z,23.1
2016-12-11T01:42:40.916Z,23.12
2016-12-11T01:43:09.727Z,23.07
2016-12-11T01:43:38.648Z,23.05
2016-12-11T01:44:06.811Z,23.12
2016-12-11T01:44:35.641Z,23.1
2016-12-11T01:45:05.061Z,23.07
2016-12-11T01:45:33.776Z,23
2016-12-11T01:46:02.059Z,23.07
2016-12-11T01:46:30.923Z,23.16
2016-12-11T01:46:59.974Z,23.13
2016-12-11T01:47:29.007Z,23.1
2016-12-11T01:47:59.405Z,23.16
2016-12-11T01:48:27.969Z,23.16
2016-12-11T01:48:56.914Z,23.16
2016-12-11T01:49:26.438Z,23.16
2016-12-11T01:49:55.484Z,23.05
2016-12-11T01:50:23.688Z,23.16
2016-12-11T01:50:51.751Z,23.17
2016-12-11T01:51:20.302Z,23.07
2016-12-11T01:51:48.405Z,23.15
2016-12-11T01:52:18.340Z,23.07
2016-12-11T01:52:46.330Z,23.2
2016-12-11T01:53:14.727Z,23.16
2016-12-11T01:54:21.252Z,23.17
2016-12-11T01:54:49.391Z,23.13
2016-12-11T01:55:17.895Z,23.12
2016-12-11T01:55:45.968Z,23.09
2016-12-11T01:56:14.700Z,23.16
2016-12-11T01:56:43.433Z,23.19
2016-12-11T01:57:12.844Z,23.15
2016-12-11T01:57:41.028Z,23.19
2016-12-11T01:58:09.461Z,23.17
2016-12-11T01:58:38.307Z,23.17
2016-12-11T01:59:07.708Z,23.15
2016-12-11T01:59:36.796Z,23.2
2016-12-11T02:00:05.402Z,23.13
2016-12-11T02:00:34.150Z,23.12
2016-12-11T02:01:02.616Z,23.33
2016-12-11T02:01:31.759Z,23.17
2016-12-11T02:02:00.882Z,23.31
2016-12-11T02:02:30.132Z,23.2
2016-12-11T02:02:59.947Z,23.22
2016-12-11T02:03:28.722Z,23.27
2016-12-11T02:03:56.879Z,23.2
2016-12-11T02:04:27.048Z,23.27
2016-12-11T02:04:55.086Z,23.19
2016-12-11T02:05:23.761Z,23.23
2016-12-11T02:05:51.922Z,23.17
2016-12-11T02:06:20.258Z,23.17
2016-12-11T02:06:49.040Z,23.23
2016-12-11T02:07:17.120Z,23.27
2016-12-11T02:07:47.130Z,23.23
2016-12-11T02:08:15.671Z,23.23
2016-12-11T02:08:44.546Z,23.32
2016-12-11T02:09:13.526Z,23.31
2016-12-11T02:09:43.917Z,23.31
2016-12-11T02:10:12.083Z,23.27
2016-12-11T02:10:40.387Z,23.27
2016-12-11T02:11:08.639Z,23.25
2016-12-11T02:11:38.321Z,23.22
2016-12-11T02:12:08.079Z,23.17
2016-12-11T02:12:38.352Z,23.19
2016-12-11T02:13:06.840Z,23.19
2016-12-11T02:13:35.739Z,23.23
2016-12-11T02:14:04.074Z,23.32
2016-12-11T02:14:31.977Z,23.31
2016-12-11T02:15:00.371Z,23.33
2016-12-11T02:15:28.413Z,23.32
2016-12-11T02:15:57.054Z,23.32
2016-12-11T02:16:25.428Z,23.31
2016-12-11T02:16:55.385Z,23.33
2016-12-11T02:17:25.779Z,23.32
2016-12-11T02:17:53.958Z,23.33
2016-12-11T02:18:22.848Z,23.33
2016-12-11T02:18:51.942Z,23.36
2016-12-11T02:19:19.981Z,23.39
2016-12-11T02:19:49.878Z,23.33
2016-12-11T02:20:18.367Z,23.32
2016-12-11T02:20:48.219Z,23.28
2016-12-11T02:21:16.533Z,23.32
2016-12-11T02:21:45.799Z,23.32
2016-12-11T02:22:14.299Z,23.28
2016-12-11T02:22:42.719Z,23.25
2016-12-11T02:23:10.504Z,23.2
2016-12-11T02:23:39.465Z,23.33
2016-12-11T02:24:07.880Z,23.22
2016-12-11T02:24:36.905Z,23.32
2016-12-11T02:25:05.288Z,23.28
2016-12-11T02:25:34.797Z,23.31
2016-12-11T02:26:03.167Z,23.22
2016-12-11T02:26:32.170Z,23.22
2016-12-11T02:27:01.504Z,23.23
2016-12-11T02:27:29.995Z,23.22
2016-12-11T02:27:59.185Z,23.27
2016-12-11T02:28:29.513Z,23.33
2016-12-11T02:28:58.233Z,23.35
2016-12-11T02:29:26.416Z,23.23
2016-12-11T02:29:55.885Z,23.31
2016-12-11T02:30:23.947Z,23.36
2016-12-11T02:30:52.204Z,23.36
2016-12-11T02:31:20.348Z,23.31
2016-12-11T02:31:49.314Z,23.32
2016-12-11T02:32:18.402Z,23.31
2016-12-11T02:32:47.258Z,23.36
2016-12-11T02:33:15.893Z,23.35
2016-12-11T02:34:23.542Z,23.32
2016-12-11T02:34:51.672Z,23.31
2016-12-11T02:35:20.150Z,23.27
2016-12-11T02:35:49.904Z,23.23
2016-12-11T02:36:18.075Z,23.25
2016-12-11T02:36:47.470Z,23.22
2016-12-11T02:37:17.696Z,23.25
2016-12-11T02:37:46.104Z,23.19
2016-12-11T02:38:14.599Z,23.17
2016-12-11T02:38:43.178Z,23.27
2016-12-11T02:39:11.777Z,23.16
2016-12-11T02:39:40.248Z,23.25
2016-12-11T02:40:08.853Z,23.17
2016-12-11T02:40:37.969Z,23.19
2016-12-11T02:41:07.253Z,23.25
2016-12-11T02:41:36.311Z,23.13
2016-12-11T02:42:05.632Z,23.16
2016-12-11T02:42:34.184Z,23.13
2016-12-11T02:43:02.335Z,23.16
2016-12-11T02:43:30.480Z,23.15
2016-12-11T02:43:58.482Z,23.09
2016-12-11T02:44:27.059Z,23.19
2016-12-11T02:44:55.125Z,23.15
2016-12-11T02:45:23.302Z,23.12
2016-12-11T02:45:52.963Z,23.1
2016-12-11T02:46:21.422Z,23.12
2016-12-11T02:46:51.054Z,23.15
2016-12-11T02:47:19.125Z,23.12
2016-12-11T02:47:48.641Z,23.12
2016-12-11T02:48:17.624Z,23.05
2016-12-11T02:48:46.993Z,23.07
2016-12-11T02:49:16.461Z,23.09
2016-12-11T02:49:45.790Z,23.07
2016-12-11T02:50:13.755Z,23.1
2016-12-11T02:50:43.867Z,23.09
2016-12-11T02:51:13.148Z,23.09
2016-12-11T02:51:41.359Z,23.05
2016-12-11T02:52:10.756Z,23.13
2016-12-11T02:52:39.012Z,23.1
2016-12-11T02:53:08.767Z,23.12
2016-12-11T02:53:37.257Z,23.09
2016-12-11T02:54:07.488Z,23.05
2016-12-11T02:54:36.477Z,23.04
2016-12-11T02:55:05.527Z,23.1
2016-12-11T02:55:33.533Z,23.12
2016-12-11T02:56:02.902Z,23.09
2016-12-11T02:56:32.101Z,22.97
2016-12-11T02:57:00.834Z,23.1
2016-12-11T02:57:29.002Z,23.05
2016-12-11T02:57:58.024Z,23.07
2016-12-11T02:58:26.357Z,23.1
2016-12-11T02:58:56.667Z,23.19
2016-12-11T02:59:25.112Z,23.1
2016-12-11T02:59:53.618Z,23.05
2016-12-11T03:00:23.714Z,23.04
2016-12-11T03:00:51.940Z,23.05
2016-12-11T03:01:20.378Z,23.07
2016-12-11T03:01:48.762Z,23.02
2016-12-11T03:02:18.030Z,23.01
2016-12-11T03:02:47.151Z,23.12
2016-12-11T03:03:16.175Z,23.04
2016-12-11T03:03:44.954Z,23.09
2016-12-11T03:04:13.206Z,23.02
2016-12-11T03:04:42.873Z,23.04
2016-12-11T03:05:11.480Z,22.95
2016-12-11T03:05:39.954Z,22.95
2016-12-11T03:06:09.283Z,22.91
2016-12-11T03:06:39.056Z,22.92
2016-12-11T03:07:08.099Z,22.94
2016-12-11T03:07:37.312Z,22.97
2016-12-11T03:08:06.840Z,22.97
2016-12-11T03:08:35.404Z,22.9
2016-12-11T03:09:03.727Z,22.92
2016-12-11T03:09:32.793Z,22.94
2016-12-11T03:10:01.267Z,23.05
2016-12-11T03:10:29.225Z,22.94
2016-12-11T03:10:57.690Z,22.94
2016-12-11T03:11:26.527Z,22.95
2016-12-11T03:11:54.901Z,22.95
2016-12-11T03:12:23.086Z,22.83
2016-12-11T03:12:51.678Z,22.98
2016-12-11T03:13:20.254Z,22.95
2016-12-11T03:14:26.651Z,22.86
2016-12-11T03:14:55.191Z,22.91
2016-12-11T03:15:24.450Z,22.91
2016-12-11T03:15:52.887Z,22.91
2016-12-11T03:16:21.471Z,22.94
2016-12-11T03:16:49.485Z,22.97
2016-12-11T03:17:18.860Z,22.92
2016-12-11T03:17:47.393Z,22.9
2016-12-11T03:18:15.435Z,22.95
2016-12-11T03:18:45.739Z,22.86
2016-12-11T03:19:13.746Z,22.92
2016-12-11T03:19:43.165Z,22.95
2016-12-11T03:20:13.038Z,22.85
2016-12-11T03:20:41.177Z,22.91
2016-12-11T03:21:09.412Z,23.01
2016-12-11T03:21:37.771Z,22.8
2016-12-11T03:22:06.578Z,22.9
2016-12-11T03:22:35.058Z,22.95
2016-12-11T03:23:03.174Z,22.9
2016-12-11T03:23:31.570Z,22.88
2016-12-11T03:24:00.816Z,22.94
2016-12-11T03:24:29.330Z,22.85
2016-12-11T03:24:57.601Z,22.86
2016-12-11T03:25:26.344Z,22.86
2016-12-11T03:25:54.693Z,22.9
2016-12-11T03:26:22.710Z,22.91
2016-12-11T03:26:51.299Z,22.95
2016-12-11T03:27:20.339Z,22.94
2016-12-11T03:27:48.617Z,22.86
2016-12-11T03:28:17.019Z,23.01
2016-12-11T03:28:45.336Z,22.86
2016-12-11T03:29:13.707Z,22.88
2016-12-11T03:29:42.720Z,22.91
2016-12-11T03:30:11.219Z,22.94
2016-12-11T03:30:40.342Z,22.94
2016-12-11T03:31:08.532Z,22.94
2016-12-11T03:31:37.109Z,23.01
2016-12-11T03:32:05.513Z,22.97
2016-12-11T03:32:33.708Z,23.01
2016-12-11T03:33:02.126Z,22.94
2016-12-11T03:33:30.596Z,22.92
2016-12-11T03:33:58.879Z,22.91
2016-12-11T03:34:27.291Z,23.04
2016-12-11T03:34:55.488Z,23.09
2016-12-11T03:35:23.807Z,23.13
2016-12-11T03:35:53.281Z,23.15
2016-12-11T03:36:21.816Z,23.1
2016-12-11T03:36:51.209Z,23.09
2016-12-11T03:37:19.306Z,23.04
2016-12-11T03:37:48.867Z,23.17
2016-12-11T03:38:17.859Z,23.19
2016-12-11T03:38:46.633Z,23.12
2016-12-11T03:39:14.783Z,23.09
2016-12-11T03:39:43.916Z,23.05
2016-12-11T03:40:12.399Z,23.12
2016-12-11T03:40:41.009Z,23.17
2016-12-11T03:41:09.975Z,23.1
2016-12-11T03:41:38.373Z,23.15
2016-12-11T03:42:08.166Z,23.15
2016-12-11T03:42:36.355Z,23.09
2016-12-11T03:43:05.849Z,23.13
2016-12-11T03:43:34.551Z,23.13
2016-12-11T03:44:02.924Z,23.17
2016-12-11T03:44:31.223Z,23.1
2016-12-11T03:45:00.647Z,23.15
2016-12-11T03:45:29.239Z,23.19
2016-12-11T03:45:57.445Z,23.12
2016-12-11T03:46:25.678Z,23.25
2016-12-11T03:46:54.392Z,23.15
2016-12-11T03:47:23.922Z,23.27
2016-12-11T03:47:52.912Z,23.27
2016-12-11T03:48:21.661Z,23.22
2016-12-11T03:48:50.808Z,23.31
2016-12-11T03:49:19.788Z,23.23
2016-12-11T03:49:49.020Z,23.15
2016-12-11T03:50:18.433Z,23.15
2016-12-11T03:50:47.863Z,23.12
2016-12-11T03:51:16.235Z,23.25
2016-12-11T03:51:45.237Z,23.17
2016-12-11T03:52:13.712Z,23.19
2016-12-11T03:52:42.138Z,23.15
2016-12-11T03:53:10.211Z,23.13
2016-12-11T03:54:17.569Z,23.16
2016-12-11T03:54:46.015Z,23.13
2016-12-11T03:55:14.411Z,23.16
2016-12-11T03:55:43.645Z,23.2
2016-12-11T03:56:12.036Z,23.22
2016-12-11T03:56:41.162Z,23.09
2016-12-11T03:57:09.402Z,23.16
2016-12-11T03:57:37.948Z,23.07
2016-12-11T03:58:07.514Z,23.16
2016-12-11T03:58:35.850Z,23.07
2016-12-11T03:59:04.229Z,23.13
2016-12-11T03:59:34.479Z,23.07
2016-12-11T04:00:03.108Z,23.1
2016-12-11T04:00:31.570Z,23.1
2016-12-11T04:01:00.150Z,23.12
2016-12-11T04:01:29.341Z,23.07
2016-12-11T04:01:57.306Z,23.09
2016-12-11T04:02:26.804Z,23.16
2016-12-11T04:02:55.622Z,23.04
2016-12-11T04:03:24.621Z,23.09
2016-12-11T04:03:53.651Z,23.04
2016-12-11T04:04:21.891Z,23.09
2016-12-11T04:04:50.220Z,23.13
2016-12-11T04:05:18.181Z,23.02
2016-12-11T04:05:46.422Z,23.09
2016-12-11T04:06:14.954Z,23.1
2016-12-11T04:06:43.332Z,23.05
2016-12-11T04:07:12.965Z,23
2016-12-11T04:07:41.762Z,23.1
2016-12-11T04:08:09.999Z,23.07
2016-12-11T04:08:40.474Z,23.09
2016-12-11T04:09:08.516Z,23.02
2016-12-11T04:09:36.933Z,23.01
2016-12-11T04:10:05.234Z,23
2016-12-11T04:10:34.351Z,22.92
2016-12-11T04:11:02.863Z,23
2016-12-11T04:11:31.920Z,22.98
2016-12-11T04:12:02.163Z,22.91
2016-12-11T04:12:30.459Z,23.02
2016-12-11T04:12:59.636Z,22.91
2016-12-11T04:13:29.073Z,23.01
2016-12-11T04:13:57.765Z,23.01
2016-12-11T04:14:25.823Z,23.01
2016-12-11T04:14:53.947Z,22.95
2016-12-11T04:15:24.031Z,23.01
2016-12-11T04:15:52.279Z,22.98
2016-12-11T04:16:21.411Z,22.98
2016-12-11T04:16:49.490Z,22.97
2016-12-11T04:17:17.967Z,22.94
2016-12-11T04:17:46.320Z,22.95
2016-12-11T04:18:14.729Z,22.98
2016-12-11T04:18:42.791Z,22.95
2016-12-11T04:19:11.412Z,23.07
2016-12-11T04:19:39.870Z,23.02
2016-12-11T04:20:08.191Z,22.94
2016-12-11T04:20:37.289Z,23.04
2016-12-11T04:21:06.481Z,22.98
2016-12-11T04:21:34.801Z,22.91
2016-12-11T04:22:03.662Z,22.94
2016-12-11T04:22:32.165Z,22.98
2016-12-11T04:23:00.501Z,22.98
2016-12-11T04:23:30.726Z,22.91
2016-12-11T04:23:59.358Z,22.94
2016-12-11T04:24:28.435Z,22.94
2016-12-11T04:24:57.099Z,22.97
2016-12-11T04:25:26.454Z,22.94
2016-12-11T04:25:54.864Z,22.92
2016-12-11T04:26:24.297Z,22.9
2016-12-11T04:26:53.618Z,22.9
2016-12-11T04:27:22.110Z,22.85
2016-12-11T04:27:50.155Z,22.86
2016-12-11T04:28:20.306Z,22.92
2016-12-11T04:28:49.773Z,22.88
2016-12-11T04:29:18.206Z,23
2016-12-11T04:29:47.076Z,22.92
2016-12-11T04:30:15.389Z,22.95
2016-12-11T04:30:44.272Z,22.85
2016-12-11T04:31:14.798Z,22.8
2016-12-11T04:31:43.024Z,22.85
2016-12-11T04:32:11.369Z,22.9
2016-12-11T04:32:41.212Z,22.92
2016-12-11T04:33:09.819Z,22.85
2016-12-11T04:34:16.579Z,22.95
2016-12-11T04:34:44.622Z,22.85
2016-12-11T04:35:13.816Z,22.85
2016-12-11T04:35:42.897Z,22.82
2016-12-11T04:36:11.870Z,22.98
2016-12-11T04:36:40.376Z,22.98
2016-12-11T04:37:09.492Z,22.86
2016-12-11T04:37:38.056Z,22.9
2016-12-11T04:38:07.718Z,22.85
2016-12-11T04:38:36.966Z,22.9
2016-12-11T04:39:05.443Z,22.75
2016-12-11T04:39:33.768Z,22.94
2016-12-11T04:40:03.102Z,22.9
2016-12-11T04:40:31.176Z,22.92
2016-12-11T04:41:00.028Z,22.86
2016-12-11T04:41:28.366Z,22.94
2016-12-11T04:41:56.454Z,22.91
2016-12-11T04:42:26.044Z,22.88
2016-12-11T04:42:55.336Z,22.9
2016-12-11T04:43:25.324Z,22.88
2016-12-11T04:43:56.643Z,22.86
2016-12-11T04:44:27.104Z,22.92
2016-12-11T04:44:55.729Z,22.92
2016-12-11T04:45:23.791Z,22.83
2016-12-11T04:45:52.476Z,22.82
2016-12-11T04:46:20.912Z,22.82
2016-12-11T04:46:50.381Z,22.79
2016-12-11T04:47:18.634Z,22.82
2016-12-11T04:47:47.691Z,22.83
2016-12-11T04:48:18.159Z,22.83
2016-12-11T04:48:47.865Z,22.86
2016-12-11T04:49:16.474Z,22.82
2016-12-11T04:49:45.259Z,22.86
2016-12-11T04:50:13.319Z,22.82
2016-12-11T04:50:42.030Z,22.79
2016-12-11T04:51:11.586Z,22.77
2016-12-11T04:51:41.673Z,22.76
2016-12-11T04:52:10.782Z,22.73
2016-12-11T04:52:40.524Z,22.73
2016-12-11T04:53:08.806Z,22.76
2016-12-11T04:53:38.300Z,22.7
2016-12-11T04:54:06.968Z,22.67
2016-12-11T04:54:38.187Z,22.68
2016-12-11T04:55:06.864Z,22.73
2016-12-11T04:55:35.129Z,22.65
2016-12-11T04:56:03.227Z,22.65
2016-12-11T04:56:31.531Z,22.65
2016-12-11T04:56:59.834Z,22.64
2016-12-11T04:57:27.848Z,22.68
2016-12-11T04:57:56.760Z,22.67
2016-12-11T04:58:26.312Z,22.58
2016-12-11T04:58:54.939Z,22.6
2016-12-11T04:59:23.235Z,22.62
2016-12-11T04:59:52.257Z,22.62
2016-12-11T05:00:22.355Z,22.6
2016-12-11T05:00:51.635Z,22.52
2016-12-11T05:01:19.770Z,22.51
2016-12-11T05:01:48.033Z,22.6
2016-12-11T05:02:16.319Z,22.52
2016-12-11T05:02:44.453Z,22.49
2016-12-11T05:03:12.699Z,22.58
2016-12-11T05:03:42.141Z,22.52
2016-12-11T05:04:10.897Z,22.54
2016-12-11T05:04:40.182Z,22.51
2016-12-11T05:05:08.438Z,22.49
2016-12-11T05:05:37.491Z,22.54
2016-12-11T05:06:05.880Z,22.52
2016-12-11T05:06:34.295Z,22.51
2016-12-11T05:07:04.477Z,22.45
2016-12-11T05:07:33.636Z,22.4
2016-12-11T05:08:02.053Z,22.39
2016-12-11T05:08:30.403Z,22.55
2016-12-11T05:08:58.561Z,22.47
2016-12-11T05:09:28.423Z,22.4
2016-12-11T05:09:59.716Z,22.46
2016-12-11T05:10:28.943Z,22.43
2016-12-11T05:10:57.279Z,22.49
2016-12-11T05:11:25.594Z,22.39
2016-12-11T05:11:54.637Z,22.51
2016-12-11T05:12:23.939Z,22.47
2016-12-11T05:12:52.425Z,22.37
2016-12-11T05:13:20.832Z,22.52
2016-12-11T05:14:27.482Z,22.54
2016-12-11T05:14:57.628Z,22.43
2016-12-11T05:15:26.413Z,22.46
2016-12-11T05:15:54.876Z,22.45
2016-12-11T05:16:23.736Z,22.45
2016-12-11T05:16:51.878Z,22.49
2016-12-11T05:17:20.251Z,22.51
2016-12-11T05:17:48.659Z,22.52
2016-12-11T05:18:17.709Z,22.49
2016-12-11T05:18:46.467Z,22.54
2016-12-11T05:19:14.831Z,22.49
2016-12-11T05:19:43.240Z,22.51
2016-12-11T05:20:11.497Z,22.54
2016-12-11T05:20:39.757Z,22.49
2016-12-11T05:21:08.753Z,22.49
2016-12-11T05:21:37.177Z,22.54
2016-12-11T05:22:05.968Z,22.51
2016-12-11T05:22:34.771Z,22.54
2016-12-11T05:23:03.149Z,22.51
2016-12-11T05:23:32.355Z,22.51
2016-12-11T05:24:00.697Z,22.52
2016-12-11T05:24:29.008Z,22.52
2016-12-11T05:24:57.422Z,22.49
2016-12-11T05:25:26.047Z,22.51
2016-12-11T05:25:54.730Z,22.51
2016-12-11T05:26:22.838Z,22.52
2016-12-11T05:26:51.242Z,22.54
2016-12-11T05:27:19.371Z,22.55
2016-12-11T05:27:48.068Z,22.55
2016-12-11T05:28:16.511Z,22.58
2016-12-11T05:28:45.750Z,22.52
2016-12-11T05:29:15.885Z,22.49
2016-12-11T05:29:45.229Z,22.49
2016-12-11T05:30:14.906Z,22.54
2016-12-11T05:30:43.358Z,22.46
2016-12-11T05:31:13.362Z,22.55
2016-12-11T05:31:42.165Z,22.51
2016-12-11T05:32:11.263Z,22.52
2016-12-11T05:32:40.353Z,22.54
2016-12-11T05:33:09.784Z,22.52
2016-12-11T05:33:38.267Z,22.6
2016-12-11T05:34:06.266Z,22.55
2016-12-11T05:34:34.870Z,22.58
2016-12-11T05:35:04.596Z,22.51
2016-12-11T05:35:33.416Z,22.54
2016-12-11T05:36:01.865Z,22.49
2016-12-11T05:36:31.861Z,22.6
2016-12-11T05:37:01.405Z,22.58
2016-12-11T05:37:29.821Z,22.61
2016-12-11T05:37:58.385Z,22.65
2016-12-11T05:38:27.773Z,22.58
2016-12-11T05:38:55.865Z,22.61
2016-12-11T05:39:24.285Z,22.67
2016-12-11T05:39:52.579Z,22.62
2016-12-11T05:40:22.711Z,22.58
2016-12-11T05:40:51.801Z,22.61
2016-12-11T05:41:28.309Z,22.67
2016-12-11T05:41:56.822Z,22.73
2016-12-11T05:42:24.932Z,22.7
2016-12-11T05:42:53.194Z,22.7
2016-12-11T05:43:21.574Z,22.68
2016-12-11T05:43:50.769Z,22.72
2016-12-11T05:44:18.856Z,22.68
2016-12-11T05:44:47.960Z,22.72
2016-12-11T05:45:16.647Z,22.73
2016-12-11T05:45:44.859Z,22.7
2016-12-11T05:46:13.083Z,22.75
2016-12-11T05:46:42.669Z,22.68
2016-12-11T05:47:10.817Z,22.73
2016-12-11T05:47:40.204Z,22.76
2016-12-11T05:48:09.185Z,22.7
2016-12-11T05:48:37.687Z,22.8
2016-12-11T05:49:06.309Z,22.76
2016-12-11T05:49:35.518Z,22.72
2016-12-11T05:50:04.924Z,22.7
2016-12-11T05:50:33.774Z,22.75
2016-12-11T05:51:02.175Z,22.7
2016-12-11T05:51:31.105Z,22.67
2016-12-11T05:51:59.331Z,22.73
2016-12-11T05:52:28.490Z,22.76
2016-12-11T05:52:56.502Z,22.75
2016-12-11T05:53:24.828Z,22.68
2016-12-11T05:54:32.678Z,22.72
2016-12-11T05:55:01.989Z,22.73
2016-12-11T05:55:32.332Z,22.67
2016-12-11T05:56:01.590Z,22.77
2016-12-11T05:56:30.728Z,22.77
2016-12-11T05:56:59.884Z,22.75
2016-12-11T05:57:28.637Z,22.77
2016-12-11T05:57:56.834Z,22.72
2016-12-11T05:58:25.062Z,22.79
2016-12-11T05:58:55.018Z,22.73
2016-12-11T05:59:24.142Z,22.73
2016-12-11T05:59:53.188Z,22.75
2016-12-11T06:00:22.251Z,22.79
2016-12-11T06:00:51.230Z,22.79
2016-12-11T06:01:19.305Z,22.75
2016-12-11T06:01:48.752Z,22.75
2016-12-11T06:02:17.033Z,22.82
2016-12-11T06:02:45.819Z,22.76
2016-12-11T06:03:14.898Z,22.82
2016-12-11T06:03:43.743Z,22.83
2016-12-11T06:04:12.540Z,22.82
2016-12-11T06:04:41.484Z,22.79
2016-12-11T06:05:11.083Z,22.83
2016-12-11T06:05:39.345Z,22.79
2016-12-11T06:06:08.057Z,22.82
2016-12-11T06:06:36.399Z,22.85
2016-12-11T06:07:04.486Z,22.8
2016-12-11T06:07:34.413Z,22.79
2016-12-11T06:08:02.539Z,22.77
2016-12-11T06:08:31.180Z,22.77
2016-12-11T06:09:00.651Z,22.7
2016-12-11T06:09:29.775Z,22.76
2016-12-11T06:09:59.335Z,22.64
2016-12-11T06:10:27.304Z,22.72
2016-12-11T06:10:56.282Z,22.61
2016-12-11T06:11:24.749Z,22.61
2016-12-11T06:11:53.695Z,22.62
2016-12-11T06:12:22.772Z,22.58
2016-12-11T06:12:50.891Z,22.6
2016-12-11T06:13:19.691Z,22.62
2016-12-11T06:13:48.310Z,22.65
2016-12-11T06:14:18.214Z,22.62
2016-12-11T06:14:47.917Z,22.61
2016-12-11T06:15:16.868Z,22.65
2016-12-11T06:15:47.156Z,22.72
2016-12-11T06:16:15.570Z,22.64
2016-12-11T06:16:43.599Z,22.62
2016-12-11T06:17:12.056Z,22.62
2016-12-11T06:17:40.747Z,22.65
2016-12-11T06:18:09.103Z,22.58
2016-12-11T06:18:37.525Z,22.62
2016-12-11T06:19:05.891Z,22.64